createdAt,value
2017-08-16T00:00:15.551Z,94.20
2017-08-16T00:02:44.087Z,94.20
2017-08-16T00:05:12.609Z,94.60
2017-08-16T00:07:41.127Z,94.50
2017-08-16T00:10:09.645Z,94.50
2017-08-16T00:12:38.157Z,94.30
2017-08-16T00:15:06.699Z,94.50
2017-08-16T00:17:35.228Z,94.80
2017-08-16T00:20:03.829Z,94.80
2017-08-16T00:22:32.334Z,94.50
2017-08-16T00:25:00.834Z,94.60
2017-08-16T00:27:29.351Z,94.60
2017-08-16T00:29:57.853Z,94.50
2017-08-16T00:32:26.334Z,94.70
2017-08-16T00:34:54.856Z,95.00
2017-08-16T00:37:23.406Z,94.90
2017-08-16T00:39:51.920Z,95.10
2017-08-16T00:42:20.445Z,94.90
2017-08-16T00:44:48.932Z,95.00
2017-08-16T00:47:17.378Z,95.30
2017-08-16T00:49:45.943Z,95.40
2017-08-16T00:52:14.573Z,95.10
2017-08-16T00:54:43.091Z,94.90
2017-08-16T00:57:11.615Z,94.70
2017-08-16T00:59:40.169Z,94.90
2017-08-16T01:02:07.939Z,95.00
2017-08-16T01:04:36.438Z,95.00
2017-08-16T01:07:05.047Z,95.30
2017-08-16T01:09:33.558Z,95.50
2017-08-16T01:12:01.939Z,95.50
2017-08-16T01:14:30.467Z,95.50
2017-08-16T01:16:59.023Z,95.60
2017-08-16T01:19:27.520Z,95.40
2017-08-16T01:21:56.034Z,95.70
2017-08-16T01:24:25.415Z,95.80
2017-08-16T01:26:53.997Z,95.80
2017-08-16T01:29:22.586Z,95.60
2017-08-16T01:31:51.100Z,95.90
2017-08-16T01:34:19.657Z,95.80
2017-08-16T01:36:48.176Z,95.90
2017-08-16T01:39:16.747Z,95.80
2017-08-16T01:41:45.263Z,96.00
2017-08-16T01:44:13.819Z,95.80
2017-08-16T01:46:42.401Z,96.00
2017-08-16T01:49:10.914Z,95.90
2017-08-16T01:51:39.476Z,95.90
2017-08-16T01:54:08.055Z,95.90
2017-08-16T01:56:37.302Z,95.70
2017-08-16T01:59:05.851Z,95.70
2017-08-16T02:01:34.364Z,95.70
2017-08-16T02:04:02.870Z,95.90
2017-08-16T02:06:31.349Z,95.90
2017-08-16T02:08:59.895Z,96.20
2017-08-16T02:11:28.396Z,95.90
2017-08-16T02:13:57.031Z,95.80
2017-08-16T02:16:25.574Z,96.20
2017-08-16T02:18:54.074Z,96.40
2017-08-16T02:21:22.571Z,96.60
2017-08-16T02:23:51.041Z,96.40
2017-08-16T02:26:19.558Z,96.10
2017-08-16T02:28:48.076Z,96.30
2017-08-16T02:31:16.620Z,96.20
2017-08-16T02:33:45.150Z,96.30
2017-08-16T02:36:13.683Z,96.40
2017-08-16T02:38:42.227Z,96.50
2017-08-16T02:41:10.743Z,96.40
2017-08-16T02:43:39.264Z,96.20
2017-08-16T02:46:07.805Z,96.20
2017-08-16T02:48:36.325Z,96.10
2017-08-16T02:51:04.885Z,96.50
2017-08-16T02:53:33.442Z,96.60
2017-08-16T02:56:01.621Z,96.30
2017-08-16T02:58:29.802Z,96.60
2017-08-16T03:00:58.331Z,96.30
2017-08-16T03:03:26.481Z,96.80
2017-08-16T03:05:54.317Z,96.40
2017-08-16T03:08:22.169Z,96.40
2017-08-16T03:10:50.691Z,96.10
2017-08-16T03:13:18.519Z,96.20
2017-08-16T03:15:46.391Z,96.40
2017-08-16T03:18:14.560Z,96.00
2017-08-16T03:20:42.356Z,95.80
2017-08-16T03:23:10.251Z,95.80
2017-08-16T03:25:38.777Z,95.90
2017-08-16T03:28:07.309Z,95.90
2017-08-16T03:30:35.477Z,95.80
2017-08-16T03:33:03.301Z,95.40
2017-08-16T03:35:31.837Z,95.20
2017-08-16T03:38:00.416Z,95.20
2017-08-16T03:40:28.622Z,95.60
2017-08-16T03:42:56.781Z,95.50
2017-08-16T03:45:24.664Z,95.60
2017-08-16T03:47:52.828Z,95.40
2017-08-16T03:50:21.030Z,95.20
2017-08-16T03:52:49.222Z,95.10
2017-08-16T03:55:17.252Z,94.70
2017-08-16T03:57:45.189Z,95.30
2017-08-16T04:00:13.032Z,95.10
2017-08-16T04:02:41.589Z,95.30
2017-08-16T04:05:10.147Z,95.40
2017-08-16T04:07:37.974Z,95.30
2017-08-16T04:10:06.139Z,95.70
2017-08-16T04:12:33.939Z,95.70
2017-08-16T04:15:02.120Z,96.00
2017-08-16T04:17:30.036Z,96.00
2017-08-16T04:19:58.562Z,95.60
2017-08-16T04:22:27.155Z,96.00
2017-08-16T04:24:55.000Z,96.10
2017-08-16T04:27:23.528Z,96.10
2017-08-16T04:29:51.347Z,96.10
2017-08-16T04:32:19.516Z,96.20
2017-08-16T04:34:47.695Z,95.80
2017-08-16T04:37:15.916Z,95.80
2017-08-16T04:39:45.218Z,95.60
2017-08-16T04:42:13.208Z,95.60
2017-08-16T04:44:41.052Z,95.90
2017-08-16T04:47:08.880Z,95.70
2017-08-16T04:49:37.088Z,95.80
2017-08-16T04:52:05.544Z,96.20
2017-08-16T04:54:33.739Z,95.80
2017-08-16T04:57:02.030Z,95.60
2017-08-16T04:59:31.394Z,95.20
2017-08-16T05:01:59.596Z,95.20
2017-08-16T05:04:27.388Z,95.10
2017-08-16T05:06:55.198Z,94.70
2017-08-16T05:09:24.737Z,94.30
2017-08-16T05:11:52.931Z,94.90
2017-08-16T05:14:21.150Z,94.70
2017-08-16T05:16:49.708Z,94.60
2017-08-16T05:19:17.874Z,94.00
2017-08-16T05:21:46.331Z,93.70
2017-08-16T05:24:14.540Z,93.70
2017-08-16T05:26:42.753Z,93.40
2017-08-16T05:29:11.259Z,93.30
2017-08-16T05:31:39.428Z,93.00
2017-08-16T05:34:07.586Z,92.90
2017-08-16T05:36:35.347Z,93.30
2017-08-16T05:39:03.140Z,92.50
2017-08-16T05:41:31.294Z,91.50
2017-08-16T05:43:59.823Z,91.50
2017-08-16T05:46:27.954Z,91.60
2017-08-16T05:48:56.498Z,90.60
2017-08-16T05:51:24.989Z,90.10
2017-08-16T05:53:53.553Z,88.50
2017-08-16T05:56:22.018Z,87.40
2017-08-16T05:58:50.519Z,86.80
2017-08-16T06:01:19.074Z,85.00
2017-08-16T06:03:47.536Z,86.50
2017-08-16T06:06:15.990Z,84.40
2017-08-16T06:08:44.498Z,81.60
2017-08-16T06:11:12.950Z,80.70
2017-08-16T06:13:41.397Z,82.20
2017-08-16T06:16:10.326Z,78.90
2017-08-16T06:18:38.737Z,76.60
2017-08-16T06:21:07.139Z,73.80
2017-08-16T06:23:37.915Z,74.90
2017-08-16T06:26:13.251Z,76.50
2017-08-16T06:28:43.332Z,75.40
2017-08-16T06:31:12.037Z,71.80
2017-08-16T06:33:44.286Z,72.50
2017-08-16T06:36:13.500Z,73.10
2017-08-16T06:38:45.689Z,73.60
2017-08-16T06:41:15.438Z,71.90
2017-08-16T06:43:45.069Z,70.80
2017-08-16T06:46:20.273Z,70.40
2017-08-16T06:48:49.565Z,70.40
2017-08-16T06:51:18.843Z,67.20
2017-08-16T06:53:50.903Z,67.10
2017-08-16T06:56:25.940Z,66.60
2017-08-16T06:58:54.531Z,66.50
2017-08-16T07:01:26.395Z,69.90
2017-08-16T07:03:56.491Z,63.10
2017-08-16T07:06:24.992Z,62.70
2017-08-16T07:08:53.780Z,62.10
2017-08-16T07:14:01.259Z,53.80
2017-08-16T07:16:30.013Z,54.20
2017-08-16T07:18:58.538Z,52.30
2017-08-16T07:21:27.054Z,52.70
2017-08-16T07:23:55.569Z,56.30
2017-08-16T07:26:24.122Z,53.40
2017-08-16T07:28:52.621Z,55.80
2017-08-16T07:33:54.436Z,50.40
2017-08-16T07:36:26.488Z,50.80
2017-08-16T07:38:55.337Z,50.20
2017-08-16T07:41:24.077Z,48.40
2017-08-16T07:43:55.088Z,47.90
2017-08-16T07:46:23.821Z,48.10
2017-08-16T07:48:52.344Z,49.90
2017-08-16T07:51:24.814Z,50.00
2017-08-16T07:53:53.551Z,49.70
2017-08-16T07:56:22.095Z,50.70
2017-08-16T07:58:50.604Z,49.70
2017-08-16T08:01:20.175Z,50.60
2017-08-16T08:03:53.239Z,50.60
2017-08-16T08:06:21.719Z,47.70
2017-08-16T08:08:50.457Z,48.00
2017-08-16T08:11:19.767Z,47.50
2017-08-16T08:13:48.284Z,48.80
2017-08-16T08:16:16.802Z,43.60
2017-08-16T08:18:45.310Z,45.60
2017-08-16T08:30:48.045Z,42.40
2017-08-16T08:33:20.483Z,40.10
2017-08-16T08:38:48.331Z,39.70
2017-08-16T08:43:40.384Z,40.50
2017-08-16T08:46:45.994Z,38.90
2017-08-16T08:55:58.282Z,41.40
2017-08-16T09:04:54.050Z,43.10
2017-08-16T09:07:23.865Z,38.10
2017-08-16T09:09:59.366Z,40.10
2017-08-16T09:29:05.819Z,40.10
2017-08-16T09:31:34.967Z,37.40
2017-08-16T09:34:04.307Z,39.20
2017-08-16T09:36:33.374Z,38.80
2017-08-16T09:39:03.063Z,39.10
2017-08-16T09:41:31.901Z,37.20
2017-08-16T09:44:02.730Z,38.50
2017-08-16T09:46:31.896Z,38.10
2017-08-16T09:49:00.668Z,37.30
2017-08-16T09:51:33.254Z,36.90
2017-08-16T09:54:04.200Z,36.10
2017-08-16T09:56:33.195Z,36.50
2017-08-16T09:59:02.400Z,38.30
2017-08-16T10:01:32.307Z,35.20
2017-08-16T10:04:01.311Z,32.00
2017-08-16T10:06:31.145Z,33.30
2017-08-16T10:09:01.039Z,35.80
2017-08-16T10:11:31.010Z,35.20
2017-08-16T10:14:04.209Z,37.00
2017-08-16T10:16:33.271Z,34.70
2017-08-16T10:19:02.459Z,35.50
2017-08-16T10:21:31.486Z,42.20
2017-08-16T10:24:02.720Z,38.50
2017-08-16T10:26:32.207Z,31.10
2017-08-16T10:29:02.089Z,36.10
2017-08-16T10:31:31.018Z,36.70
2017-08-16T10:34:00.002Z,34.40
2017-08-16T10:36:28.624Z,32.70
2017-08-16T10:38:57.213Z,31.70
2017-08-16T10:41:25.731Z,34.10
2017-08-16T10:43:54.306Z,35.60
2017-08-16T10:46:23.598Z,32.90
2017-08-16T10:48:52.149Z,33.00
2017-08-16T10:51:21.421Z,40.50
2017-08-16T10:53:49.974Z,35.80
2017-08-16T10:56:19.295Z,36.90
2017-08-16T10:58:47.934Z,36.90
2017-08-16T11:01:16.526Z,39.00
2017-08-16T11:03:45.107Z,37.90
2017-08-16T11:06:13.607Z,36.80
2017-08-16T11:08:42.111Z,42.40
2017-08-16T11:11:10.615Z,46.20
2017-08-16T11:13:39.114Z,47.60
2017-08-16T11:16:10.802Z,52.30
2017-08-16T11:18:39.369Z,49.30
2017-08-16T11:21:07.852Z,41.10
2017-08-16T11:23:36.117Z,39.40
2017-08-16T11:26:06.278Z,46.00
2017-08-16T11:28:35.592Z,42.50
2017-08-16T11:31:06.217Z,43.60
2017-08-16T11:33:35.523Z,45.50
2017-08-16T11:36:04.023Z,45.60
2017-08-16T11:38:32.582Z,43.60
2017-08-16T11:41:01.107Z,46.40
2017-08-16T11:43:29.773Z,45.90
2017-08-16T11:45:58.305Z,51.80
2017-08-16T11:48:26.817Z,54.50
2017-08-16T11:50:55.312Z,48.40
2017-08-16T11:53:23.830Z,48.60
2017-08-16T11:55:52.379Z,53.60
2017-08-16T11:58:21.444Z,50.10
2017-08-16T12:00:50.012Z,50.70
2017-08-16T12:03:18.467Z,58.60
2017-08-16T12:05:46.976Z,53.10
2017-08-16T12:08:15.483Z,57.20
2017-08-16T12:10:43.993Z,57.80
2017-08-16T12:13:12.518Z,58.80
2017-08-16T12:15:41.001Z,62.60
2017-08-16T12:18:09.479Z,66.40
2017-08-16T12:20:37.917Z,69.20
2017-08-16T12:23:06.385Z,72.50
2017-08-16T12:25:34.794Z,76.40
2017-08-16T12:28:03.206Z,84.60
2017-08-16T12:30:31.877Z,86.80
2017-08-16T12:33:00.329Z,87.50
2017-08-16T12:35:28.764Z,87.60
2017-08-16T12:37:57.222Z,90.20
2017-08-16T12:40:25.643Z,93.20
2017-08-16T12:42:54.102Z,93.90
2017-08-16T12:45:22.628Z,94.10
2017-08-16T12:47:51.114Z,94.70
2017-08-16T12:50:19.602Z,95.00
2017-08-16T12:52:48.149Z,95.20
2017-08-16T12:55:16.648Z,94.90
2017-08-16T12:57:45.086Z,95.80
2017-08-16T13:00:13.540Z,95.80
2017-08-16T13:02:42.258Z,95.80
2017-08-16T13:05:10.693Z,95.90
2017-08-16T13:07:39.198Z,96.00
2017-08-16T13:10:07.955Z,95.90
2017-08-16T13:12:36.436Z,96.30
2017-08-16T13:15:04.563Z,96.20
2017-08-16T13:17:33.029Z,95.70
2017-08-16T13:20:01.503Z,95.70
2017-08-16T13:22:29.990Z,95.90
2017-08-16T13:24:58.466Z,95.50
2017-08-16T13:27:26.942Z,95.90
2017-08-16T13:29:55.399Z,96.20
2017-08-16T13:32:23.917Z,96.20
2017-08-16T13:34:52.416Z,96.70
2017-08-16T13:37:20.947Z,95.80
2017-08-16T13:39:49.397Z,95.60
2017-08-16T13:42:17.873Z,95.30
2017-08-16T13:44:46.395Z,94.80
2017-08-16T13:47:14.937Z,94.30
2017-08-16T13:49:43.410Z,94.70
2017-08-16T13:52:11.934Z,94.80
2017-08-16T13:54:40.697Z,93.90
2017-08-16T13:57:09.118Z,92.90
2017-08-16T13:59:37.661Z,93.20
2017-08-16T14:02:06.377Z,94.00
2017-08-16T14:04:35.073Z,93.70
2017-08-16T14:07:03.580Z,93.50
2017-08-16T14:09:32.060Z,93.40
2017-08-16T14:12:00.552Z,93.40
2017-08-16T14:14:29.101Z,92.50
2017-08-16T14:16:57.824Z,92.10
2017-08-16T14:19:26.341Z,92.20
2017-08-16T14:21:54.813Z,92.40
2017-08-16T14:24:23.632Z,92.10
2017-08-16T14:26:52.098Z,92.90
2017-08-16T14:29:20.555Z,92.60
2017-08-16T14:31:49.013Z,92.50
2017-08-16T14:34:17.451Z,92.60
2017-08-16T14:36:45.924Z,91.90
2017-08-16T14:39:14.364Z,91.30
2017-08-16T14:41:42.957Z,91.20
2017-08-16T14:44:11.494Z,91.40
2017-08-16T14:46:39.753Z,91.60
2017-08-16T14:49:08.193Z,91.90
2017-08-16T14:51:37.009Z,91.70
2017-08-16T14:54:06.266Z,92.70
2017-08-16T14:56:35.136Z,92.70
2017-08-16T14:59:03.619Z,92.10
2017-08-16T15:01:32.137Z,92.70
2017-08-16T15:04:00.583Z,92.30
2017-08-16T15:06:29.043Z,92.60
2017-08-16T15:08:57.534Z,92.10
2017-08-16T15:11:26.020Z,92.60
2017-08-16T15:13:54.472Z,92.30
2017-08-16T15:16:23.288Z,92.90
2017-08-16T15:18:51.805Z,92.60
2017-08-16T15:21:20.264Z,93.10
2017-08-16T15:23:48.560Z,93.50
2017-08-16T15:26:17.044Z,93.10
2017-08-16T15:28:45.478Z,93.10
2017-08-16T15:31:14.768Z,93.40
2017-08-16T15:33:44.020Z,93.70
2017-08-16T15:36:12.328Z,93.70
2017-08-16T15:38:40.794Z,93.50
2017-08-16T15:41:09.244Z,94.10
2017-08-16T15:43:38.439Z,93.80
2017-08-16T15:46:07.070Z,94.20
2017-08-16T15:48:35.502Z,94.80
2017-08-16T15:51:03.934Z,95.00
2017-08-16T15:53:32.363Z,94.20
2017-08-16T15:56:00.772Z,94.10
2017-08-16T15:58:29.191Z,93.30
2017-08-16T16:00:57.618Z,93.10
2017-08-16T16:03:26.077Z,93.50
2017-08-16T16:05:54.505Z,93.30
2017-08-16T16:08:23.573Z,93.70
2017-08-16T16:10:51.985Z,93.90
2017-08-16T16:13:20.442Z,94.20
2017-08-16T16:15:48.858Z,93.90
2017-08-16T16:18:17.261Z,93.90
2017-08-16T16:20:45.701Z,94.70
2017-08-16T16:23:14.109Z,94.60
2017-08-16T16:25:42.527Z,94.40
2017-08-16T16:28:10.773Z,94.50
2017-08-16T16:30:39.211Z,94.60
2017-08-16T16:33:07.616Z,94.20
2017-08-16T16:35:36.053Z,93.60
2017-08-16T16:38:05.462Z,94.40
2017-08-16T16:40:34.775Z,94.40
2017-08-16T16:43:03.242Z,93.30
2017-08-16T16:45:31.341Z,93.40
2017-08-16T16:47:59.762Z,93.50
2017-08-16T16:50:28.215Z,93.80
2017-08-16T16:52:56.673Z,93.80
2017-08-16T16:55:25.117Z,93.70
2017-08-16T16:57:54.069Z,93.60
2017-08-16T17:00:23.287Z,94.30
2017-08-16T17:02:53.184Z,94.30
2017-08-16T17:05:23.178Z,94.70
2017-08-16T17:07:52.215Z,94.70
2017-08-16T17:10:21.372Z,94.80
2017-08-16T17:12:51.189Z,95.30
2017-08-16T17:15:20.117Z,95.20
2017-08-16T17:17:49.520Z,95.40
2017-08-16T17:20:18.585Z,95.70
2017-08-16T17:22:48.352Z,95.60
2017-08-16T17:25:18.513Z,95.70
2017-08-16T17:27:47.552Z,95.10
2017-08-16T17:30:18.194Z,94.80
2017-08-16T17:32:47.339Z,94.60
2017-08-16T17:35:16.755Z,94.60
2017-08-16T17:37:45.693Z,94.40
2017-08-16T17:40:14.659Z,94.50
2017-08-16T17:42:44.615Z,94.50
2017-08-16T17:45:13.625Z,95.10
2017-08-16T17:47:42.666Z,94.80
2017-08-16T17:50:12.742Z,94.20
2017-08-16T17:52:42.740Z,94.40
2017-08-16T17:55:12.934Z,96.70
2017-08-16T17:57:41.860Z,96.70
2017-08-16T18:00:11.025Z,94.70
2017-08-16T18:02:40.079Z,96.20
2017-08-16T18:05:09.793Z,96.70
2017-08-16T18:07:39.718Z,97.00
2017-08-16T18:10:08.647Z,97.00
2017-08-16T18:12:38.632Z,96.80
2017-08-16T18:15:08.690Z,97.30
2017-08-16T18:17:37.215Z,96.20
2017-08-16T18:20:05.609Z,95.90
2017-08-16T18:22:34.011Z,95.80
2017-08-16T18:25:02.471Z,95.60
2017-08-16T18:27:30.933Z,95.60
2017-08-16T18:29:59.390Z,95.60
2017-08-16T18:32:27.825Z,95.50
2017-08-16T18:34:56.328Z,95.20
2017-08-16T18:37:25.065Z,95.10
2017-08-16T18:39:53.597Z,95.10
2017-08-16T18:42:22.122Z,94.90
2017-08-16T18:44:50.636Z,94.90
2017-08-16T18:47:19.153Z,95.30
2017-08-16T18:49:47.651Z,95.30
2017-08-16T18:52:16.136Z,95.80
2017-08-16T18:54:44.702Z,95.40
2017-08-16T18:57:13.177Z,95.30
2017-08-16T18:59:41.642Z,95.60
2017-08-16T19:02:10.152Z,95.60
2017-08-16T19:04:38.671Z,95.60
2017-08-16T19:07:07.188Z,95.30
2017-08-16T19:09:35.676Z,95.10
2017-08-16T19:12:04.200Z,95.20
2017-08-16T19:14:32.528Z,96.30
2017-08-16T19:17:00.791Z,95.80
2017-08-16T19:19:29.310Z,95.50
2017-08-16T19:21:57.820Z,95.80
2017-08-16T19:24:26.591Z,95.60
2017-08-16T19:26:56.718Z,95.30
2017-08-16T19:29:27.509Z,94.90
2017-08-16T19:31:55.840Z,95.30
2017-08-16T19:34:24.752Z,95.60
2017-08-16T19:36:53.175Z,96.10
2017-08-16T19:39:21.779Z,95.60
2017-08-16T19:41:50.269Z,95.40
2017-08-16T19:44:18.948Z,95.40
2017-08-16T19:46:48.617Z,96.40
2017-08-16T19:49:17.116Z,95.90
2017-08-16T19:51:45.822Z,95.60
2017-08-16T19:54:14.345Z,95.50
2017-08-16T19:56:42.814Z,95.70
2017-08-16T19:59:11.303Z,95.90
2017-08-16T20:01:40.436Z,95.40
2017-08-16T20:04:08.932Z,95.90
2017-08-16T20:06:37.460Z,96.00
2017-08-16T20:09:06.287Z,96.50
2017-08-16T20:11:34.768Z,95.50
2017-08-16T20:14:03.299Z,95.80
2017-08-16T20:16:31.796Z,95.70
2017-08-16T20:19:00.625Z,95.60
2017-08-16T20:21:29.155Z,95.30
2017-08-16T20:23:57.621Z,95.80
2017-08-16T20:26:26.112Z,95.10
2017-08-16T20:28:54.598Z,94.80
2017-08-16T20:31:23.077Z,95.50
2017-08-16T20:33:51.508Z,95.00
2017-08-16T20:36:20.717Z,95.50
2017-08-16T20:38:49.191Z,95.40
2017-08-16T20:41:17.735Z,95.10
2017-08-16T20:43:46.183Z,95.30
2017-08-16T20:46:14.696Z,95.50
2017-08-16T20:48:43.170Z,96.20
2017-08-16T20:51:11.687Z,95.90
2017-08-16T20:53:40.142Z,96.10
2017-08-16T20:56:08.567Z,96.40
2017-08-16T20:58:37.290Z,96.50
2017-08-16T21:01:05.826Z,95.90
2017-08-16T21:03:35.070Z,96.70
2017-08-16T21:06:03.491Z,96.60
2017-08-16T21:08:31.995Z,96.70
2017-08-16T21:11:00.438Z,96.60
2017-08-16T21:13:28.890Z,96.60
2017-08-16T21:15:57.412Z,96.40
2017-08-16T21:18:26.151Z,96.40
2017-08-16T21:20:54.616Z,96.00
2017-08-16T21:23:23.114Z,96.00
2017-08-16T21:25:51.802Z,95.90
2017-08-16T21:28:20.530Z,96.00
2017-08-16T21:30:49.017Z,96.50
2017-08-16T21:33:17.507Z,96.20
2017-08-16T21:35:45.999Z,96.60
2017-08-16T21:38:14.459Z,96.60
2017-08-16T21:40:42.933Z,96.30
2017-08-16T21:43:11.356Z,96.20
2017-08-16T21:45:39.773Z,96.70
2017-08-16T21:48:08.454Z,96.20
2017-08-16T21:50:36.955Z,96.30
2017-08-16T21:53:05.441Z,96.10
2017-08-16T21:55:33.919Z,96.60
2017-08-16T21:58:02.386Z,96.20
2017-08-16T22:00:30.814Z,96.40
2017-08-16T22:02:59.286Z,96.20
2017-08-16T22:05:27.758Z,96.60
2017-08-16T22:07:56.211Z,96.50
2017-08-16T22:10:24.664Z,96.70
2017-08-16T22:12:53.172Z,96.90
2017-08-16T22:15:21.621Z,97.70
2017-08-16T22:17:50.086Z,97.40
2017-08-16T22:20:18.556Z,97.70
2017-08-16T22:22:47.025Z,97.00
2017-08-16T22:25:15.505Z,97.20
2017-08-16T22:27:43.999Z,96.60
2017-08-16T22:30:12.730Z,96.10
2017-08-16T22:32:41.933Z,96.10
2017-08-16T22:35:10.438Z,96.10
2017-08-16T22:37:38.950Z,96.10
2017-08-16T22:40:07.408Z,95.70
2017-08-16T22:42:35.925Z,95.50
2017-08-16T22:45:04.354Z,95.60
2017-08-16T22:47:32.771Z,95.00
2017-08-16T22:50:01.278Z,94.80
2017-08-16T22:52:29.734Z,95.10
2017-08-16T22:54:58.215Z,95.20
2017-08-16T22:57:26.814Z,95.20
2017-08-16T22:59:55.485Z,94.60
2017-08-16T23:02:23.927Z,94.40
2017-08-16T23:04:52.406Z,95.70
2017-08-16T23:07:20.834Z,96.10
2017-08-16T23:09:49.321Z,96.30
2017-08-16T23:12:17.854Z,95.70
2017-08-16T23:14:46.325Z,95.70
2017-08-16T23:17:14.772Z,96.60
2017-08-16T23:19:43.230Z,95.60
2017-08-16T23:22:11.713Z,95.00
2017-08-16T23:24:40.159Z,94.90
2017-08-16T23:27:08.613Z,94.50
2017-08-16T23:29:36.866Z,94.40
2017-08-16T23:32:05.319Z,94.20
2017-08-16T23:34:33.762Z,94.30
2017-08-16T23:37:02.189Z,94.40
2017-08-16T23:39:30.618Z,94.50
2017-08-16T23:41:59.058Z,94.60
2017-08-16T23:44:27.482Z,94.50
2017-08-16T23:46:56.159Z,94.40
2017-08-16T23:49:24.574Z,94.40
2017-08-16T23:51:53.001Z,94.40
2017-08-16T23:54:21.459Z,94.80
2017-08-16T23:56:49.911Z,94.50
2017-08-16T23:59:18.351Z,94.50
